createdAt,value
2019-04-23T00:00:03.767Z,0.00
2019-04-23T00:01:08.054Z,0.00
2019-04-23T00:02:03.974Z,0.00
2019-04-23T00:02:58.851Z,0.00
2019-04-23T00:04:01.069Z,0.00
2019-04-23T00:04:59.539Z,0.00
2019-04-23T00:06:08.541Z,0.00
2019-04-23T00:07:13.014Z,0.00
2019-04-23T00:08:07.392Z,0.00
2019-04-23T00:09:07.671Z,0.00
2019-04-23T00:10:06.550Z,0.00
2019-04-23T00:11:08.800Z,0.00
2019-04-23T00:12:01.804Z,0.00
2019-04-23T00:12:59.144Z,0.00
2019-04-23T00:14:07.097Z,0.00
2019-04-23T00:15:24.040Z,0.00
2019-04-23T00:16:10.762Z,0.00
2019-04-23T00:17:11.606Z,0.00
2019-04-23T00:18:04.150Z,0.00
2019-04-23T00:18:56.157Z,0.00
2019-04-23T00:21:11.725Z,0.00
2019-04-23T00:21:57.343Z,0.00
2019-04-23T00:23:05.099Z,0.00
2019-04-23T00:24:10.055Z,0.00
2019-04-23T00:25:34.476Z,0.00
2019-04-23T00:26:00.284Z,0.00
2019-04-23T00:27:19.663Z,0.00
2019-04-23T00:28:07.875Z,0.00
2019-04-23T00:29:05.393Z,0.00
2019-04-23T00:30:18.856Z,0.00
2019-04-23T00:31:11.848Z,0.00
2019-04-23T00:32:05.094Z,0.00
2019-04-23T00:33:07.417Z,0.00
2019-04-23T00:34:04.881Z,0.00
2019-04-23T00:35:00.634Z,0.00
2019-04-23T00:36:02.711Z,0.00
2019-04-23T00:37:06.514Z,0.00
2019-04-23T00:38:09.107Z,0.00
2019-04-23T00:39:17.307Z,0.00
2019-04-23T00:39:57.721Z,0.00
2019-04-23T00:41:02.977Z,0.00
2019-04-23T00:42:10.311Z,0.00
2019-04-23T00:43:01.976Z,0.00
2019-04-23T00:44:04.196Z,0.00
2019-04-23T00:45:18.139Z,0.00
2019-04-23T00:45:59.797Z,0.00
2019-04-23T00:47:00.994Z,0.00
2019-04-23T00:48:02.998Z,0.00
2019-04-23T00:49:05.420Z,0.00
2019-04-23T00:50:15.989Z,0.00
2019-04-23T00:50:58.571Z,0.00
2019-04-23T00:52:12.608Z,0.00
2019-04-23T00:53:12.606Z,0.00
2019-04-23T00:54:09.477Z,0.00
2019-04-23T00:55:12.453Z,0.00
2019-04-23T00:56:22.093Z,0.00
2019-04-23T00:57:09.041Z,0.00
2019-04-23T00:58:07.655Z,0.00
2019-04-23T00:59:00.414Z,0.00
2019-04-23T01:00:10.351Z,0.00
2019-04-23T01:01:00.431Z,0.00
2019-04-23T01:02:05.702Z,0.00
2019-04-23T01:04:02.335Z,0.00
2019-04-23T01:05:10.302Z,0.00
2019-04-23T01:05:58.845Z,0.00
2019-04-23T01:08:06.827Z,0.00
2019-04-23T01:09:02.143Z,0.00
2019-04-23T01:10:10.616Z,0.00
2019-04-23T01:11:16.356Z,0.00
2019-04-23T01:12:03.896Z,0.00
2019-04-23T01:15:02.492Z,0.00
2019-04-23T01:16:21.247Z,0.00
2019-04-23T01:17:06.061Z,0.00
2019-04-23T01:18:14.247Z,0.00
2019-04-23T01:19:18.930Z,0.00
2019-04-23T01:20:04.825Z,0.00
2019-04-23T01:20:53.669Z,0.00
2019-04-23T01:21:41.173Z,0.00
2019-04-23T01:22:40.190Z,0.00
2019-04-23T01:23:47.155Z,0.00
2019-04-23T01:24:43.805Z,0.00
2019-04-23T01:25:51.347Z,0.00
2019-04-23T01:27:16.393Z,0.00
2019-04-23T01:28:02.135Z,0.00
2019-04-23T01:29:06.743Z,0.00
2019-04-23T01:30:12.433Z,0.00
2019-04-23T01:31:09.179Z,0.00
2019-04-23T01:32:08.638Z,0.00
2019-04-23T01:33:02.612Z,0.00
2019-04-23T01:34:11.117Z,0.00
2019-04-23T01:35:15.482Z,0.00
2019-04-23T01:36:16.192Z,0.00
2019-04-23T01:37:07.754Z,0.00
2019-04-23T01:38:09.644Z,0.00
2019-04-23T01:39:08.252Z,0.00
2019-04-23T01:39:57.911Z,0.00
2019-04-23T01:41:09.554Z,0.00
2019-04-23T01:42:11.829Z,0.00
2019-04-23T01:43:04.317Z,0.00
2019-04-23T01:43:58.219Z,0.00
2019-04-23T01:45:07.037Z,0.00
2019-04-23T01:46:07.941Z,0.00
2019-04-23T01:47:15.053Z,0.00
2019-04-23T01:48:00.109Z,0.00
2019-04-23T01:49:07.812Z,0.00
2019-04-23T01:50:21.326Z,0.00
2019-04-23T01:52:08.206Z,0.00
2019-04-23T01:53:08.588Z,0.00
2019-04-23T01:54:06.966Z,0.00
2019-04-23T01:55:08.244Z,0.00
2019-04-23T01:56:09.147Z,0.00
2019-04-23T01:57:13.631Z,0.00
2019-04-23T01:58:20.712Z,0.00
2019-04-23T01:59:05.085Z,0.00
2019-04-23T02:00:14.070Z,0.00
2019-04-23T02:01:08.554Z,0.00
2019-04-23T02:02:05.225Z,0.00
2019-04-23T02:04:16.504Z,0.00
2019-04-23T02:05:09.758Z,0.00
2019-04-23T02:06:06.703Z,0.00
2019-04-23T02:07:06.242Z,0.00
2019-04-23T02:09:10.952Z,0.00
2019-04-23T02:10:16.793Z,0.00
2019-04-23T02:11:02.977Z,0.00
2019-04-23T02:12:07.416Z,0.00
2019-04-23T02:13:14.151Z,0.00
2019-04-23T02:14:09.454Z,0.00
2019-04-23T02:15:11.524Z,0.00
2019-04-23T02:16:10.191Z,0.00
2019-04-23T02:17:00.193Z,0.00
2019-04-23T02:18:05.490Z,0.00
2019-04-23T02:19:12.948Z,0.00
2019-04-23T02:20:14.185Z,0.00
2019-04-23T02:22:08.839Z,0.00
2019-04-23T02:23:11.375Z,0.00
2019-04-23T02:24:03.645Z,0.00
2019-04-23T02:25:09.582Z,0.00
2019-04-23T02:26:04.794Z,0.00
2019-04-23T02:27:09.834Z,0.00
2019-04-23T02:28:10.003Z,0.00
2019-04-23T02:29:13.301Z,0.00
2019-04-23T02:31:29.695Z,0.00
2019-04-23T02:33:29.418Z,0.00
2019-04-23T02:37:13.428Z,0.00
2019-04-23T02:38:27.310Z,0.00
2019-04-23T02:39:02.769Z,0.00
2019-04-23T02:40:17.039Z,0.00
2019-04-23T02:41:27.659Z,0.00
2019-04-23T02:42:30.864Z,0.00
2019-04-23T02:43:15.233Z,0.00
2019-04-23T02:45:10.351Z,0.00
2019-04-23T02:46:08.171Z,0.00
2019-04-23T02:48:19.806Z,0.00
2019-04-23T02:50:34.669Z,0.00
2019-04-23T02:51:10.879Z,0.00
2019-04-23T02:53:18.118Z,0.00
2019-04-23T02:56:18.896Z,0.00
2019-04-23T02:57:09.334Z,0.00
2019-04-23T02:58:21.358Z,0.00
2019-04-23T02:59:18.974Z,0.00
2019-04-23T03:00:18.943Z,0.00
2019-04-23T03:01:21.984Z,0.00
2019-04-23T03:02:30.384Z,0.00
2019-04-23T03:03:14.247Z,0.00
2019-04-23T03:06:14.579Z,0.00
2019-04-23T03:07:14.072Z,0.00
2019-04-23T03:08:07.447Z,0.00
2019-04-23T03:09:18.821Z,0.00
2019-04-23T03:12:18.384Z,0.00
2019-04-23T03:13:19.839Z,0.00
2019-04-23T03:14:23.272Z,0.00
2019-04-23T03:15:23.768Z,0.00
2019-04-23T03:16:15.812Z,0.00
2019-04-23T03:17:03.408Z,0.00
2019-04-23T03:19:09.660Z,0.00
2019-04-23T03:20:14.873Z,0.00
2019-04-23T03:26:28.707Z,0.00
2019-04-23T03:28:23.126Z,0.00
2019-04-23T03:32:51.988Z,0.00
2019-04-23T03:34:19.674Z,0.00
2019-04-23T03:35:09.291Z,0.00
2019-04-23T03:37:20.336Z,0.00
2019-04-23T03:38:20.430Z,0.00
2019-04-23T03:38:56.063Z,0.00
2019-04-23T03:41:21.046Z,0.00
2019-04-23T03:42:09.861Z,0.00
2019-04-23T03:44:06.696Z,0.00
2019-04-23T03:45:17.274Z,0.00
2019-04-23T03:48:17.981Z,0.00
2019-04-23T03:49:07.139Z,0.00
2019-04-23T03:50:14.812Z,0.00
2019-04-23T03:51:11.829Z,0.00
2019-04-23T03:53:22.564Z,0.00
2019-04-23T03:55:11.724Z,0.00
2019-04-23T03:56:22.320Z,0.00
2019-04-23T03:57:18.466Z,0.00
2019-04-23T03:58:12.186Z,4.00
2019-04-23T04:00:31.062Z,4.00
2019-04-23T04:01:19.722Z,4.00
2019-04-23T04:02:30.765Z,4.00
2019-04-23T04:05:20.553Z,0.00
2019-04-23T04:06:23.553Z,0.00
2019-04-23T04:10:05.056Z,4.00
2019-04-23T04:12:14.311Z,4.00
2019-04-23T04:13:20.044Z,4.00
2019-04-23T04:14:54.487Z,4.00
2019-04-23T04:15:24.436Z,4.00
2019-04-23T04:16:12.023Z,4.00
2019-04-23T04:19:16.548Z,8.00
2019-04-23T04:20:17.807Z,4.00
2019-04-23T04:21:14.341Z,4.00
2019-04-23T04:22:23.840Z,4.00
2019-04-23T04:23:17.611Z,4.00
2019-04-23T04:25:19.286Z,4.00
2019-04-23T04:26:13.905Z,8.00
2019-04-23T04:28:17.828Z,8.00
2019-04-23T04:29:10.794Z,8.00
2019-04-23T04:30:27.722Z,8.00
2019-04-23T04:31:30.973Z,8.00
2019-04-23T04:32:15.121Z,8.00
2019-04-23T04:33:16.688Z,12.00
2019-04-23T04:34:22.285Z,8.00
2019-04-23T04:36:14.273Z,8.00
2019-04-23T04:37:36.199Z,8.00
2019-04-23T04:38:34.929Z,8.00
2019-04-23T04:39:10.070Z,8.00
2019-04-23T04:40:33.066Z,12.00
2019-04-23T04:42:11.393Z,12.00
2019-04-23T04:45:13.653Z,12.00
2019-04-23T04:47:15.540Z,12.00
2019-04-23T04:48:00.478Z,12.00
2019-04-23T04:49:11.933Z,12.00
2019-04-23T04:52:24.265Z,12.00
2019-04-23T04:54:13.928Z,12.00
2019-04-23T04:55:19.506Z,16.00
2019-04-23T04:58:12.816Z,12.00
2019-04-23T04:59:22.876Z,12.00
2019-04-23T05:01:22.413Z,16.00
2019-04-23T05:02:14.488Z,16.00
2019-04-23T05:03:19.440Z,16.00
2019-04-23T05:04:18.274Z,16.00
2019-04-23T05:05:28.942Z,16.00
2019-04-23T05:06:15.701Z,16.00
2019-04-23T05:07:09.305Z,20.00
2019-04-23T05:08:13.828Z,20.00
2019-04-23T05:09:17.084Z,20.00
2019-04-23T05:10:16.562Z,20.00
2019-04-23T05:13:22.248Z,20.00
2019-04-23T05:14:05.872Z,24.00
2019-04-23T05:15:07.368Z,24.00
2019-04-23T05:16:07.701Z,24.00
2019-04-23T05:17:18.294Z,24.00
2019-04-23T05:19:15.515Z,28.00
2019-04-23T05:21:03.648Z,28.00
2019-04-23T05:23:15.816Z,28.00
2019-04-23T05:24:21.406Z,32.00
2019-04-23T05:24:57.146Z,28.00
2019-04-23T05:26:13.464Z,32.00
2019-04-23T05:27:02.456Z,32.00
2019-04-23T05:28:07.707Z,36.00
2019-04-23T05:30:07.763Z,36.00
2019-04-23T05:31:06.535Z,32.00
2019-04-23T05:32:02.544Z,36.00
2019-04-23T05:34:06.076Z,40.00
2019-04-23T05:35:04.721Z,36.00
2019-04-23T05:37:06.151Z,40.00
2019-04-23T05:39:11.697Z,40.00
2019-04-23T05:40:08.745Z,44.00
2019-04-23T05:41:11.102Z,44.00
2019-04-23T05:42:00.609Z,44.00
2019-04-23T05:43:03.337Z,44.00
2019-04-23T05:44:10.307Z,48.00
2019-04-23T05:45:08.380Z,44.00
2019-04-23T05:46:04.422Z,48.00
2019-04-23T05:47:11.459Z,48.00
2019-04-23T05:48:13.205Z,52.00
2019-04-23T05:49:09.394Z,48.00
2019-04-23T05:50:15.482Z,48.00
2019-04-23T05:52:02.150Z,48.00
2019-04-23T05:53:04.194Z,52.00
2019-04-23T05:54:06.780Z,52.00
2019-04-23T05:55:02.635Z,56.00
2019-04-23T05:56:06.513Z,56.00
2019-04-23T05:57:09.901Z,56.00
2019-04-23T05:58:14.549Z,60.00
2019-04-23T05:59:07.154Z,56.00
2019-04-23T06:00:04.053Z,56.00
2019-04-23T06:01:22.187Z,60.00
2019-04-23T06:03:11.311Z,64.00
2019-04-23T06:05:05.965Z,64.00
2019-04-23T06:06:10.825Z,68.00
2019-04-23T06:07:15.250Z,64.00
2019-04-23T06:08:03.060Z,64.00
2019-04-23T06:09:11.232Z,68.00
2019-04-23T06:10:04.973Z,68.00
2019-04-23T06:11:11.811Z,68.00
2019-04-23T06:12:02.862Z,68.00
2019-04-23T06:13:06.604Z,72.00
2019-04-23T06:14:16.975Z,72.00
2019-04-23T06:15:05.622Z,72.00
2019-04-23T06:16:12.277Z,76.00
2019-04-23T06:17:03.695Z,76.00
2019-04-23T06:18:11.994Z,76.00
2019-04-23T06:19:08.003Z,80.00
2019-04-23T06:20:00.540Z,80.00
2019-04-23T06:21:10.078Z,80.00
2019-04-23T06:22:30.082Z,80.00
2019-04-23T06:23:11.249Z,84.00
2019-04-23T06:24:10.369Z,84.00
2019-04-23T06:25:30.789Z,84.00
2019-04-23T06:27:08.710Z,84.00
2019-04-23T06:28:08.871Z,88.00
2019-04-23T06:29:06.760Z,88.00
2019-04-23T06:30:04.603Z,88.00
2019-04-23T06:32:02.251Z,92.00
2019-04-23T06:33:05.839Z,92.00
2019-04-23T06:34:12.085Z,96.00
2019-04-23T06:35:13.881Z,92.00
2019-04-23T06:36:07.565Z,92.00
2019-04-23T06:37:05.315Z,96.00
2019-04-23T06:38:22.968Z,96.00
2019-04-23T06:40:00.399Z,100.00
2019-04-23T06:41:06.223Z,100.00
2019-04-23T06:42:02.024Z,100.00
2019-04-23T06:43:05.295Z,104.00
2019-04-23T06:44:59.568Z,108.00
2019-04-23T06:46:05.397Z,108.00
2019-04-23T06:47:03.670Z,108.00
2019-04-23T06:48:08.997Z,112.00
2019-04-23T06:49:00.853Z,112.00
2019-04-23T06:50:00.124Z,112.00
2019-04-23T06:51:09.206Z,112.00
2019-04-23T06:52:18.336Z,112.00
2019-04-23T06:52:59.412Z,116.00
2019-04-23T06:54:04.388Z,116.00
2019-04-23T06:55:01.567Z,120.00
2019-04-23T06:56:06.753Z,120.00
2019-04-23T06:57:14.853Z,120.00
2019-04-23T06:58:08.397Z,120.00
2019-04-23T06:59:06.359Z,120.00
2019-04-23T06:59:59.177Z,120.00
2019-04-23T07:01:00.703Z,128.00
2019-04-23T07:02:06.203Z,128.00
2019-04-23T07:03:07.641Z,124.00
2019-04-23T07:04:05.235Z,128.00
2019-04-23T07:06:11.782Z,128.00
2019-04-23T07:07:25.645Z,128.00
2019-04-23T07:08:04.414Z,132.00
2019-04-23T07:09:10.583Z,132.00
2019-04-23T07:09:57.872Z,132.00
2019-04-23T07:11:11.836Z,132.00
2019-04-23T07:11:56.472Z,136.00
2019-04-23T07:13:02.771Z,132.00
2019-04-23T07:15:11.614Z,136.00
2019-04-23T07:16:04.670Z,136.00
2019-04-23T07:17:03.824Z,136.00
2019-04-23T07:18:04.372Z,136.00
2019-04-23T07:19:05.075Z,140.00
2019-04-23T07:20:00.232Z,140.00
2019-04-23T07:21:06.758Z,140.00
2019-04-23T07:22:06.647Z,140.00
2019-04-23T07:23:08.381Z,140.00
2019-04-23T07:25:08.190Z,140.00
2019-04-23T07:26:07.569Z,144.00
2019-04-23T07:26:53.124Z,144.00
2019-04-23T07:28:06.864Z,140.00
2019-04-23T07:29:00.557Z,144.00
2019-04-23T07:30:10.377Z,144.00
2019-04-23T07:31:07.363Z,144.00
2019-04-23T07:32:03.645Z,144.00
2019-04-23T07:33:04.524Z,144.00
2019-04-23T07:34:01.169Z,148.00
2019-04-23T07:35:07.186Z,144.00
2019-04-23T07:35:51.825Z,148.00
2019-04-23T07:38:20.677Z,148.00
2019-04-23T07:40:20.216Z,152.00
2019-04-23T07:41:08.720Z,148.00
2019-04-23T07:42:13.763Z,148.00
2019-04-23T07:43:03.189Z,152.00
2019-04-23T07:44:14.265Z,148.00
2019-04-23T07:45:02.063Z,152.00
2019-04-23T07:46:10.291Z,152.00
2019-04-23T07:48:13.257Z,148.00
2019-04-23T07:49:07.824Z,148.00
2019-04-23T07:50:19.228Z,148.00
2019-04-23T07:51:06.204Z,148.00
2019-04-23T07:52:12.982Z,152.00
2019-04-23T07:53:17.076Z,148.00
2019-04-23T07:55:08.322Z,148.00
2019-04-23T07:56:05.920Z,148.00
2019-04-23T07:57:08.918Z,152.00
2019-04-23T07:58:06.707Z,152.00
2019-04-23T07:59:07.281Z,152.00
2019-04-23T08:00:02.560Z,152.00
2019-04-23T08:01:13.803Z,148.00
2019-04-23T08:02:08.038Z,152.00
2019-04-23T08:03:13.560Z,152.00
2019-04-23T08:04:05.025Z,152.00
2019-04-23T08:05:13.081Z,148.00
2019-04-23T08:06:04.282Z,152.00
2019-04-23T08:07:00.834Z,152.00
2019-04-23T08:08:01.618Z,152.00
2019-04-23T08:09:03.579Z,156.00
2019-04-23T08:10:02.309Z,152.00
2019-04-23T08:11:23.434Z,156.00
2019-04-23T08:12:07.905Z,156.00
2019-04-23T08:13:10.317Z,156.00
2019-04-23T08:16:08.880Z,152.00
2019-04-23T08:16:58.327Z,152.00
2019-04-23T08:18:09.927Z,156.00
2019-04-23T08:18:57.617Z,156.00
2019-04-23T08:20:19.391Z,156.00
2019-04-23T08:21:00.879Z,156.00
2019-04-23T08:22:13.467Z,156.00
2019-04-23T08:23:01.899Z,156.00
2019-04-23T08:24:00.264Z,156.00
2019-04-23T08:25:08.468Z,156.00
2019-04-23T08:26:14.344Z,156.00
2019-04-23T08:27:04.664Z,160.00
2019-04-23T08:28:10.226Z,156.00
2019-04-23T08:29:12.242Z,160.00
2019-04-23T08:30:00.202Z,156.00
2019-04-23T08:31:00.557Z,160.00
2019-04-23T08:32:06.845Z,160.00
2019-04-23T08:33:03.716Z,160.00
2019-04-23T08:34:17.146Z,164.00
2019-04-23T08:35:01.309Z,160.00
2019-04-23T08:36:07.269Z,164.00
2019-04-23T08:37:05.064Z,160.00
2019-04-23T08:39:04.123Z,164.00
2019-04-23T08:41:10.228Z,164.00
2019-04-23T08:42:21.745Z,164.00
2019-04-23T08:43:09.051Z,164.00
2019-04-23T08:44:05.568Z,164.00
2019-04-23T08:45:12.775Z,164.00
2019-04-23T08:46:05.930Z,164.00
2019-04-23T08:48:09.259Z,164.00
2019-04-23T08:49:03.066Z,168.00
2019-04-23T08:49:57.967Z,168.00
2019-04-23T08:51:10.799Z,164.00
2019-04-23T08:52:07.132Z,164.00
2019-04-23T08:53:19.978Z,168.00
2019-04-23T08:54:10.640Z,164.00
2019-04-23T08:55:00.860Z,168.00
2019-04-23T08:56:15.079Z,164.00
2019-04-23T08:57:09.099Z,164.00
2019-04-23T08:57:56.159Z,164.00
2019-04-23T08:59:09.083Z,168.00
2019-04-23T09:00:17.790Z,168.00
2019-04-23T09:01:05.665Z,168.00
2019-04-23T09:03:04.610Z,168.00
2019-04-23T09:04:04.780Z,168.00
2019-04-23T09:05:16.206Z,164.00
2019-04-23T09:07:11.352Z,168.00
2019-04-23T09:08:08.306Z,168.00
2019-04-23T09:08:56.575Z,168.00
2019-04-23T09:10:07.807Z,168.00
2019-04-23T09:11:04.928Z,168.00
2019-04-23T09:11:59.541Z,168.00
2019-04-23T09:13:32.139Z,168.00
2019-04-23T09:14:05.654Z,172.00
2019-04-23T09:16:14.743Z,168.00
2019-04-23T09:17:11.429Z,168.00
2019-04-23T09:18:02.783Z,168.00
2019-04-23T09:19:10.593Z,172.00
2019-04-23T09:21:03.679Z,172.00
2019-04-23T09:22:07.203Z,172.00
2019-04-23T09:22:55.104Z,168.00
2019-04-23T09:24:00.715Z,168.00
2019-04-23T09:25:06.552Z,168.00
2019-04-23T09:25:57.543Z,172.00
2019-04-23T09:27:09.720Z,168.00
2019-04-23T09:28:00.352Z,172.00
2019-04-23T09:31:08.983Z,168.00
2019-04-23T09:33:07.968Z,168.00
2019-04-23T09:35:08.593Z,172.00
2019-04-23T09:36:02.732Z,168.00
2019-04-23T09:37:06.226Z,168.00
2019-04-23T09:37:59.638Z,168.00
2019-04-23T09:39:00.168Z,168.00
2019-04-23T09:40:13.992Z,168.00
2019-04-23T09:41:16.677Z,168.00
2019-04-23T09:42:05.506Z,168.00
2019-04-23T09:44:09.443Z,164.00
2019-04-23T09:45:03.853Z,168.00
2019-04-23T09:46:06.415Z,168.00
2019-04-23T09:47:06.579Z,168.00
2019-04-23T09:48:01.660Z,168.00
2019-04-23T09:49:09.783Z,168.00
2019-04-23T09:50:01.227Z,168.00
2019-04-23T09:51:03.133Z,172.00
2019-04-23T09:52:07.914Z,168.00
2019-04-23T09:54:04.440Z,168.00
2019-04-23T09:55:07.620Z,168.00
2019-04-23T09:55:51.326Z,172.00
2019-04-23T09:56:57.366Z,172.00
2019-04-23T09:58:06.079Z,168.00
2019-04-23T09:59:10.975Z,168.00
2019-04-23T10:00:25.601Z,172.00
2019-04-23T10:00:54.499Z,168.00
2019-04-23T10:01:52.883Z,172.00
2019-04-23T10:02:53.967Z,168.00
2019-04-23T10:03:47.812Z,172.00
2019-04-23T10:04:48.705Z,172.00
2019-04-23T10:05:46.050Z,176.00
2019-04-23T10:06:38.965Z,176.00
2019-04-23T10:07:44.509Z,176.00
2019-04-23T10:08:38.200Z,180.00
2019-04-23T10:09:34.308Z,176.00
2019-04-23T10:10:34.328Z,180.00
2019-04-23T10:11:34.588Z,180.00
2019-04-23T10:12:33.211Z,192.00
2019-04-23T10:13:34.400Z,204.00
2019-04-23T10:14:34.518Z,212.00
2019-04-23T10:15:37.170Z,216.00
2019-04-23T10:16:34.456Z,216.00
2019-04-23T10:17:34.085Z,212.00
2019-04-23T10:18:33.271Z,212.00
2019-04-23T10:19:33.138Z,212.00
2019-04-23T10:20:34.365Z,212.00
2019-04-23T10:21:33.436Z,204.00
2019-04-23T10:22:35.818Z,208.00
2019-04-23T10:23:33.453Z,204.00
2019-04-23T10:24:33.099Z,204.00
2019-04-23T10:25:34.138Z,200.00
2019-04-23T10:26:34.333Z,204.00
2019-04-23T10:27:33.048Z,204.00
2019-04-23T10:28:33.808Z,204.00
2019-04-23T10:29:34.259Z,200.00
2019-04-23T10:30:33.035Z,196.00
2019-04-23T10:31:33.499Z,196.00
2019-04-23T10:32:33.547Z,196.00
2019-04-23T10:33:34.350Z,196.00
2019-04-23T10:34:42.973Z,192.00
2019-04-23T10:35:44.556Z,192.00
2019-04-23T10:36:34.614Z,188.00
2019-04-23T10:37:44.801Z,188.00
2019-04-23T10:38:34.611Z,188.00
2019-04-23T10:39:38.874Z,188.00
2019-04-23T10:40:38.185Z,188.00
2019-04-23T10:41:35.807Z,188.00
2019-04-23T10:42:35.862Z,188.00
2019-04-23T10:43:38.376Z,188.00
2019-04-23T10:44:35.274Z,184.00
2019-04-23T10:45:44.798Z,184.00
2019-04-23T10:46:53.137Z,184.00
2019-04-23T10:49:10.796Z,188.00
2019-04-23T10:50:07.407Z,184.00
2019-04-23T10:51:00.259Z,188.00
2019-04-23T10:52:11.629Z,188.00
2019-04-23T10:53:09.239Z,188.00
2019-04-23T10:55:00.028Z,192.00
2019-04-23T10:56:02.793Z,192.00
2019-04-23T10:56:59.806Z,192.00
2019-04-23T10:58:01.928Z,192.00
2019-04-23T10:58:54.984Z,192.00
2019-04-23T11:00:00.040Z,192.00
2019-04-23T11:01:08.734Z,192.00
2019-04-23T11:02:20.122Z,196.00
2019-04-23T11:03:12.525Z,200.00
2019-04-23T11:04:36.126Z,200.00
2019-04-23T11:06:06.647Z,200.00
2019-04-23T11:07:09.971Z,196.00
2019-04-23T11:07:55.190Z,200.00
2019-04-23T11:09:05.871Z,200.00
2019-04-23T11:10:03.297Z,200.00
2019-04-23T11:11:12.156Z,196.00
2019-04-23T11:12:14.601Z,196.00
2019-04-23T11:13:25.790Z,200.00
2019-04-23T11:14:02.886Z,200.00
2019-04-23T11:15:11.149Z,204.00
2019-04-23T11:16:37.099Z,208.00
2019-04-23T11:17:03.627Z,204.00
2019-04-23T11:17:55.683Z,196.00
2019-04-23T11:18:56.682Z,200.00
2019-04-23T11:20:06.895Z,204.00
2019-04-23T11:21:07.408Z,208.00
2019-04-23T11:22:17.451Z,208.00
2019-04-23T11:22:54.901Z,208.00
2019-04-23T11:24:12.691Z,212.00
2019-04-23T11:25:12.099Z,216.00
2019-04-23T11:25:55.859Z,232.00
2019-04-23T11:27:07.845Z,244.00
2019-04-23T11:28:11.504Z,224.00
2019-04-23T11:29:01.653Z,208.00
2019-04-23T11:30:10.776Z,208.00
2019-04-23T11:30:57.366Z,204.00
2019-04-23T11:32:19.754Z,204.00
2019-04-23T11:35:18.191Z,208.00
2019-04-23T11:37:06.170Z,212.00
2019-04-23T11:38:29.088Z,228.00
2019-04-23T11:39:16.409Z,180.00
2019-04-23T11:41:04.131Z,208.00
2019-04-23T11:42:05.186Z,200.00
2019-04-23T11:44:56.557Z,232.00
2019-04-23T11:45:05.449Z,244.00
2019-04-23T11:46:10.537Z,236.00
2019-04-23T11:47:09.385Z,236.00
2019-04-23T11:48:26.388Z,232.00
2019-04-23T11:50:12.321Z,216.00
2019-04-23T11:51:10.663Z,224.00
2019-04-23T11:51:36.398Z,120.00
2019-04-23T11:53:06.719Z,212.00
2019-04-23T11:54:05.855Z,116.00
2019-04-23T11:55:09.427Z,208.00
2019-04-23T11:56:02.886Z,204.00
2019-04-23T11:57:22.448Z,208.00
2019-04-23T11:59:10.229Z,212.00
2019-04-23T11:59:59.496Z,220.00
2019-04-23T12:01:11.637Z,236.00
2019-04-23T12:02:19.369Z,224.00
2019-04-23T12:02:57.542Z,188.00
2019-04-23T12:05:11.665Z,120.00
2019-04-23T12:06:07.867Z,152.00
2019-04-23T12:07:04.727Z,204.00
2019-04-23T12:08:07.306Z,208.00
2019-04-23T12:08:56.597Z,216.00
2019-04-23T12:10:19.997Z,216.00
2019-04-23T12:11:58.258Z,212.00
2019-04-23T12:13:03.338Z,196.00
2019-04-23T12:14:10.173Z,200.00
2019-04-23T12:15:07.220Z,208.00
2019-04-23T12:16:00.572Z,208.00
2019-04-23T12:17:18.652Z,204.00
2019-04-23T12:17:59.089Z,204.00
2019-04-23T12:19:28.798Z,220.00
2019-04-23T12:20:06.039Z,120.00
2019-04-23T12:20:56.683Z,204.00
2019-04-23T12:23:12.217Z,248.00
2019-04-23T12:24:04.321Z,236.00
2019-04-23T12:26:02.998Z,116.00
2019-04-23T12:27:08.461Z,124.00
2019-04-23T12:27:46.935Z,144.00
2019-04-23T12:29:13.827Z,148.00
2019-04-23T12:30:00.796Z,140.00
2019-04-23T12:30:57.273Z,188.00
2019-04-23T12:32:16.113Z,152.00
2019-04-23T12:33:03.138Z,164.00
2019-04-23T12:35:03.666Z,280.00
2019-04-23T12:36:04.886Z,256.00
2019-04-23T12:37:21.368Z,232.00
2019-04-23T12:38:00.968Z,124.00
2019-04-23T12:39:04.356Z,128.00
2019-04-23T12:40:13.091Z,224.00
2019-04-23T12:40:57.839Z,120.00
2019-04-23T12:43:57.953Z,144.00
2019-04-23T12:45:05.166Z,124.00
2019-04-23T12:45:59.505Z,132.00
2019-04-23T12:47:09.852Z,160.00
2019-04-23T12:49:34.383Z,188.00
2019-04-23T12:50:31.164Z,120.00
2019-04-23T12:51:21.321Z,120.00
2019-04-23T12:52:03.632Z,124.00
2019-04-23T12:53:22.939Z,120.00
2019-04-23T12:53:57.760Z,152.00
2019-04-23T12:55:08.672Z,180.00
2019-04-23T12:56:20.372Z,84.00
2019-04-23T12:57:09.020Z,76.00
2019-04-23T12:58:01.868Z,76.00
2019-04-23T12:59:01.445Z,92.00
2019-04-23T13:01:05.490Z,104.00
2019-04-23T13:02:08.135Z,104.00
2019-04-23T13:02:55.459Z,120.00
2019-04-23T13:03:50.575Z,132.00
2019-04-23T13:05:00.538Z,84.00
2019-04-23T13:05:55.379Z,96.00
2019-04-23T13:07:00.199Z,112.00
2019-04-23T13:08:13.373Z,116.00
2019-04-23T13:09:01.361Z,124.00
2019-04-23T13:10:01.425Z,88.00
2019-04-23T13:10:59.349Z,84.00
2019-04-23T13:12:06.431Z,80.00
2019-04-23T13:13:09.447Z,96.00
2019-04-23T13:15:13.921Z,104.00
2019-04-23T13:17:19.931Z,144.00
2019-04-23T13:18:11.338Z,136.00
2019-04-23T13:19:24.220Z,148.00
2019-04-23T13:21:36.410Z,100.00
2019-04-23T13:22:16.439Z,100.00
2019-04-23T13:24:11.454Z,104.00
2019-04-23T13:25:09.476Z,100.00
2019-04-23T13:26:16.102Z,108.00
2019-04-23T13:27:12.047Z,136.00
2019-04-23T13:29:19.949Z,100.00
2019-04-23T13:30:17.036Z,88.00
2019-04-23T13:32:09.346Z,84.00
2019-04-23T13:34:17.620Z,80.00
2019-04-23T13:35:42.028Z,84.00
2019-04-23T13:36:17.545Z,88.00
2019-04-23T13:37:11.999Z,92.00
2019-04-23T13:38:19.588Z,104.00
2019-04-23T13:39:11.965Z,116.00
2019-04-23T13:40:09.588Z,116.00
2019-04-23T13:41:19.134Z,148.00
2019-04-23T13:42:19.820Z,120.00
2019-04-23T13:43:23.464Z,104.00
2019-04-23T13:44:10.024Z,116.00
2019-04-23T13:45:18.383Z,68.00
2019-04-23T13:47:25.034Z,56.00
2019-04-23T13:49:08.038Z,60.00
2019-04-23T13:50:28.114Z,68.00
2019-04-23T13:51:16.217Z,60.00
2019-04-23T13:52:38.034Z,48.00
2019-04-23T13:53:21.013Z,44.00
2019-04-23T13:54:24.070Z,48.00
2019-04-23T13:56:09.136Z,44.00
2019-04-23T13:57:44.019Z,48.00
2019-04-23T13:58:15.227Z,48.00
2019-04-23T13:59:29.044Z,60.00
2019-04-23T14:00:19.212Z,68.00
2019-04-23T14:01:20.066Z,68.00
2019-04-23T14:02:17.665Z,60.00
2019-04-23T14:03:13.282Z,56.00
2019-04-23T14:04:14.217Z,60.00
2019-04-23T14:05:17.781Z,56.00
2019-04-23T14:07:17.764Z,60.00
2019-04-23T14:08:22.817Z,52.00
2019-04-23T14:09:17.236Z,44.00
2019-04-23T14:11:19.763Z,36.00
2019-04-23T14:12:08.361Z,32.00
2019-04-23T14:13:31.174Z,32.00
2019-04-23T14:14:22.433Z,32.00
2019-04-23T14:15:11.705Z,32.00
2019-04-23T14:16:21.232Z,28.00
2019-04-23T14:17:26.922Z,28.00
2019-04-23T14:18:36.758Z,32.00
2019-04-23T14:19:02.438Z,36.00
2019-04-23T14:22:33.738Z,44.00
2019-04-23T14:24:18.226Z,48.00
2019-04-23T14:27:14.290Z,40.00
2019-04-23T14:28:21.674Z,40.00
2019-04-23T14:29:04.557Z,36.00
2019-04-23T14:30:21.781Z,40.00
2019-04-23T14:31:13.427Z,40.00
2019-04-23T14:32:20.832Z,36.00
2019-04-23T14:33:24.896Z,28.00
2019-04-23T14:35:18.516Z,28.00
2019-04-23T14:37:13.285Z,24.00
2019-04-23T14:39:10.054Z,32.00
2019-04-23T14:40:15.306Z,32.00
2019-04-23T14:41:31.919Z,32.00
2019-04-23T14:42:21.447Z,36.00
2019-04-23T14:43:15.027Z,40.00
2019-04-23T14:44:16.148Z,36.00
2019-04-23T14:45:18.815Z,32.00
2019-04-23T14:47:16.831Z,32.00
2019-04-23T14:49:26.902Z,28.00
2019-04-23T14:51:16.737Z,32.00
2019-04-23T14:52:12.099Z,28.00
2019-04-23T14:53:24.475Z,28.00
2019-04-23T14:54:12.921Z,28.00
2019-04-23T14:55:40.561Z,28.00
2019-04-23T14:56:13.118Z,24.00
2019-04-23T14:58:17.201Z,20.00
2019-04-23T14:59:07.884Z,20.00
2019-04-23T15:01:24.792Z,20.00
2019-04-23T15:02:16.071Z,20.00
2019-04-23T15:03:19.923Z,20.00
2019-04-23T15:04:01.604Z,20.00
2019-04-23T15:05:13.055Z,20.00
2019-04-23T15:06:28.211Z,20.00
2019-04-23T15:07:15.690Z,24.00
2019-04-23T15:08:15.269Z,24.00
2019-04-23T15:09:22.930Z,24.00
2019-04-23T15:10:17.900Z,24.00
2019-04-23T15:11:22.387Z,20.00
2019-04-23T15:12:20.848Z,20.00
2019-04-23T15:13:23.201Z,16.00
2019-04-23T15:14:23.340Z,16.00